Time;durP1;ratioP1;P1;durP2;ratioP2;P2;SDS_P1;SDS_P2;PMS_P1;PMS_P2;Temp;Humidity;BMP_temperature;BMP_pressure;BME280_temperature;BME280_humidity;BME280_pressure;Samples;Min_cycle;Max_cycle;Signal;HPM_P1;HPM_P2
2023/04/07 00:01:13;;;;;;;10.80;2.30;;;16.70;88.60;;;;;;10450611;28;20048;-22
2023/04/07 00:06:15;;;;;;;7.70;4.07;;;15.60;85.20;;;;;;10450652;28;20051;-23
2023/04/07 00:11:18;;;;;;;10.00;3.92;;;16.90;86.70;;;;;;10453223;28;20068;-24
2023/04/07 00:16:20;;;;;;;7.65;4.15;;;17.80;78.70;;;;;;10453975;28;20106;-23
2023/04/07 00:21:22;;;;;;;8.48;3.55;;;17.70;78.30;;;;;;10454556;28;20367;-24
2023/04/07 00:26:27;;;;;;;7.60;4.20;;;18.10;75.90;;;;;;10459523;28;20076;-24
2023/04/07 00:31:29;;;;;;;9.50;4.82;;;18.80;71.40;;;;;;10456987;28;20037;-23
2023/04/07 00:36:32;;;;;;;7.28;1.38;;;17.70;77.50;;;;;;10446964;28;20131;-23
2023/04/07 00:41:35;;;;;;;6.18;3.35;;;17.70;71.00;;;;;;10448308;28;20056;-23
2023/04/07 00:46:37;;;;;;;6.57;2.65;;;17.60;80.70;;;;;;10449858;28;20044;-23
2023/04/07 00:51:39;;;;;;;5.63;2.85;;;17.80;78.20;;;;;;10454418;28;20101;-23
2023/04/07 00:56:42;;;;;;;7.40;2.20;;;17.30;81.50;;;;;;10453189;28;20084;-24
2023/04/07 01:01:47;;;;;;;6.18;1.92;;;16.70;82.50;;;;;;10445537;28;20056;-25
2023/04/07 01:06:52;;;;;;;14.73;2.65;;;15.40;90.60;;;;;;10447783;28;20045;-23
2023/04/07 01:12:04;;;;;;;10.38;2.38;;;16.20;82.70;;;;;;10441622;28;20145;-24
2023/04/07 01:17:07;;;;;;;12.38;2.90;;;15.90;78.70;;;;;;10448587;28;20041;-24
2023/04/07 01:22:12;;;;;;;4.35;1.85;;;16.10;90.20;;;;;;10448526;28;20052;-25
2023/04/07 01:27:21;;;;;;;7.68;1.75;;;17.10;82.50;;;;;;10457283;28;20049;-24
2023/04/07 01:32:27;;;;;;;5.28;1.73;;;16.50;79.50;;;;;;10445869;28;20091;-23
2023/04/07 01:37:29;;;;;;;6.35;2.83;;;16.90;79.70;;;;;;10449041;28;20161;-24
2023/04/07 01:42:32;;;;;;;;;;;16.30;83.50;;;;;;10455197;28;20580;-24
2023/04/07 01:47:37;;;;;;;4.90;1.75;;;15.40;92.50;;;;;;10457489;28;19920;-22
2023/04/07 01:52:40;;;;;;;7.97;2.20;;;16.30;85.60;;;;;;10448960;28;20045;-23
2023/04/07 01:57:41;;;;;;;6.55;1.92;;;16.80;85.00;;;;;;10460674;28;20084;-23
2023/04/07 02:02:47;;;;;;;4.77;1.80;;;16.50;84.00;;;;;;10448308;28;20120;-23
2023/04/07 02:07:52;;;;;;;11.95;2.65;;;17.30;81.40;;;;;;10448931;28;20128;-31
2023/04/07 02:12:56;;;;;;;4.15;2.15;;;15.50;92.50;;;;;;10451499;28;20049;-23
2023/04/07 02:18:01;;;;;;;9.95;2.00;;;15.80;90.60;;;;;;10445737;28;20048;-23
2023/04/07 02:23:03;;;;;;;6.35;2.10;;;15.40;91.90;;;;;;10458185;28;20090;-23
2023/04/07 02:28:05;;;;;;;14.15;1.85;;;14.60;95.70;;;;;;10449699;28;20080;-23
2023/04/07 02:33:09;;;;;;;11.57;1.58;;;13.60;98.20;;;;;;10456132;28;20045;-23
2023/04/07 02:38:11;;;;;;;10.45;1.67;;;13.30;97.40;;;;;;10459279;28;20045;-24
2023/04/07 02:43:13;;;;;;;5.30;2.00;;;13.60;99.90;;;;;;10461313;28;20045;-23
2023/04/07 02:48:16;;;;;;;5.45;1.48;;;15.30;95.60;;;;;;10453884;28;20140;-22
2023/04/07 02:53:18;;;;;;;9.05;1.48;;;13.20;99.20;;;;;;10456206;28;20052;-24
2023/04/07 02:58:20;;;;;;;7.73;1.23;;;13.60;99.90;;;;;;10454518;28;20048;-22
2023/04/07 03:03:24;;;;;;;3.40;1.20;;;12.30;99.90;;;;;;10455470;28;20045;-24
2023/04/07 03:08:26;;;;;;;2.47;0.82;;;13.40;99.90;;;;;;10456126;28;20092;-24
2023/04/07 03:13:29;;;;;;;2.27;1.10;;;14.90;96.70;;;;;;10454749;28;20179;-23
2023/04/07 03:18:32;;;;;;;8.13;1.25;;;15.40;93.10;;;;;;10453816;28;21021;-22
2023/04/07 03:23:34;;;;;;;10.30;2.13;;;14.00;93.70;;;;;;10452835;28;20130;-23
2023/04/07 03:28:36;;;;;;;3.80;1.23;;;13.60;99.90;;;;;;10452717;28;20077;-24
2023/04/07 03:33:39;;;;;;;3.73;1.50;;;14.60;98.40;;;;;;10465438;28;20053;-24
2023/04/07 03:38:41;;;;;;;3.25;1.08;;;15.70;92.90;;;;;;10467300;28;20142;-22
2023/04/07 03:43:43;;;;;;;6.50;1.07;;;15.70;91.90;;;;;;10453960;28;20051;-23
2023/04/07 03:48:46;;;;;;;5.28;1.10;;;16.30;88.40;;;;;;10452812;28;20063;-23
2023/04/07 03:53:48;;;;;;;9.02;1.50;;;16.20;90.00;;;;;;10456490;28;20075;-22
2023/04/07 03:58:50;;;;;;;1.73;0.60;;;14.90;90.60;;;;;;10449672;28;20065;-23
2023/04/07 04:03:53;;;;;;;4.00;0.80;;;15.50;92.90;;;;;;10445409;28;20052;-22
2023/04/07 04:08:55;;;;;;;5.68;1.00;;;15.60;91.70;;;;;;10456132;28;20136;-22
2023/04/07 04:13:57;;;;;;;3.63;0.93;;;15.70;84.80;;;;;;10450006;28;20618;-22
2023/04/07 04:19:00;;;;;;;4.28;0.98;;;16.70;85.90;;;;;;10455834;28;20605;-22
2023/04/07 04:24:02;;;;;;;3.45;0.90;;;16.30;85.30;;;;;;10450270;28;20132;-23
2023/04/07 04:29:04;;;;;;;5.07;0.73;;;16.50;85.80;;;;;;10461330;28;20122;-23
2023/04/07 04:34:07;;;;;;;3.67;0.70;;;17.00;81.90;;;;;;10457119;28;20048;-23
2023/04/07 04:39:09;;;;;;;2.78;0.70;;;17.70;77.70;;;;;;10446398;28;20055;-23
2023/04/07 04:44:11;;;;;;;3.10;0.85;;;17.60;78.70;;;;;;10450229;28;20064;-23
2023/04/07 04:49:15;;;;;;;3.88;0.70;;;16.10;91.80;;;;;;10446417;28;20048;-23
2023/04/07 04:54:17;;;;;;;2.63;0.52;;;16.90;85.50;;;;;;10449435;28;20494;-22
2023/04/07 04:59:19;;;;;;;5.88;1.25;;;17.90;78.30;;;;;;10449732;28;20044;-23
2023/04/07 05:04:22;;;;;;;8.05;0.77;;;15.70;86.80;;;;;;10444268;28;20565;-23
2023/04/07 05:09:24;;;;;;;2.70;0.80;;;16.20;90.90;;;;;;10442335;28;20057;-23
2023/04/07 05:14:26;;;;;;;8.75;1.10;;;16.00;91.10;;;;;;10454901;28;20396;-23
2023/04/07 05:19:29;;;;;;;5.00;0.77;;;16.40;76.20;;;;;;10458966;28;20731;-24
2023/04/07 05:24:31;;;;;;;8.82;1.08;;;17.30;84.70;;;;;;10451171;28;20075;-23
2023/04/07 05:29:33;;;;;;;10.68;1.40;;;17.00;83.00;;;;;;10447216;28;20048;-23
2023/04/07 05:34:36;;;;;;;7.95;1.10;;;17.10;80.40;;;;;;10444200;28;20075;-24
2023/04/07 05:39:38;;;;;;;9.20;1.30;;;17.70;75.90;;;;;;10451156;28;20114;-24
2023/04/07 05:44:40;;;;;;;1.42;0.80;;;17.40;73.70;;;;;;10449563;28;20139;-22
2023/04/07 05:49:46;;;;;;;7.72;1.45;;;18.60;73.40;;;;;;10448314;28;20139;-23
2023/04/07 05:54:48;;;;;;;5.38;0.90;;;17.30;76.10;;;;;;10443364;28;20448;-24
2023/04/07 05:59:50;;;;;;;5.63;1.13;;;16.70;81.30;;;;;;10456378;28;20529;-23
2023/04/07 06:15:29;;;;;;;10.45;1.65;;;16.80;85.50;;;;;;10548448;27;20599;-23
2023/04/07 06:20:31;;;;;;;4.65;1.55;;;15.80;92.70;;;;;;10519656;28;20045;-22
2023/04/07 06:25:33;;;;;;;4.50;1.35;;;17.40;81.40;;;;;;10532205;28;20135;-23
2023/04/07 06:30:36;;;;;;;6.00;0.80;;;16.80;89.60;;;;;;10520206;28;20151;-23
2023/04/07 06:35:40;;;;;;;1.95;0.50;;;17.60;80.70;;;;;;10534908;28;20862;-23
2023/04/07 06:40:42;;;;;;;4.97;0.90;;;16.70;89.10;;;;;;10531697;28;20452;-22
2023/04/07 06:45:45;;;;;;;3.00;0.80;;;16.90;84.80;;;;;;10524609;28;20493;-22
2023/04/07 06:50:47;;;;;;;11.18;2.22;;;16.40;90.60;;;;;;10522653;28;20477;-23
2023/04/07 06:55:49;;;;;;;4.75;0.85;;;15.30;87.10;;;;;;10523633;28;20090;-24
2023/04/07 07:00:52;;;;;;;2.23;0.67;;;16.90;89.40;;;;;;10516963;28;20131;-22
2023/04/07 07:05:55;;;;;;;3.78;0.73;;;15.80;91.80;;;;;;10519877;28;20482;-24
2023/04/07 07:10:57;;;;;;;5.22;1.10;;;16.40;85.60;;;;;;10520327;28;20113;-23
2023/04/07 07:16:00;;;;;;;2.83;1.15;;;16.30;82.10;;;;;;10522616;28;20131;-22
2023/04/07 07:21:02;;;;;;;8.00;1.30;;;15.60;93.90;;;;;;10522458;28;20064;-22
2023/04/07 07:26:04;;;;;;;5.00;0.63;;;16.10;89.60;;;;;;10501517;28;20088;-22
2023/04/07 07:31:11;;;;;;;2.78;1.13;;;16.00;86.80;;;;;;10500717;28;20118;-20
2023/04/07 07:36:14;;;;;;;6.47;1.55;;;15.10;93.90;;;;;;10496438;28;20139;-22
2023/04/07 07:41:16;;;;;;;7.43;1.25;;;15.30;84.60;;;;;;10488386;28;20051;-21
2023/04/07 07:46:19;;;;;;;4.37;1.20;;;15.90;91.30;;;;;;10490772;28;20047;-23
2023/04/07 07:51:21;;;;;;;4.22;0.82;;;17.00;79.30;;;;;;10494197;28;20055;-23
2023/04/07 07:56:23;;;;;;;3.65;0.65;;;15.50;93.00;;;;;;10502949;28;20040;-23
2023/04/07 08:01:26;;;;;;;8.10;1.00;;;16.40;89.40;;;;;;10496010;28;20090;-23
2023/04/07 08:06:30;;;;;;;8.15;1.58;;;16.20;91.60;;;;;;10512941;28;20077;-23
2023/04/07 08:11:32;;;;;;;2.75;0.80;;;13.90;96.40;;;;;;10492931;28;20083;-22
2023/04/07 08:16:35;;;;;;;12.07;1.30;;;14.70;92.30;;;;;;10499306;28;20389;-22
2023/04/07 08:21:37;;;;;;;5.72;1.10;;;14.30;95.80;;;;;;10491734;28;20098;-23
2023/04/07 08:26:39;;;;;;;5.23;0.93;;;13.90;97.90;;;;;;10495807;28;20135;-21
2023/04/07 08:31:42;;;;;;;7.90;1.00;;;14.90;90.60;;;;;;10502972;28;20075;-23
2023/04/07 08:36:44;;;;;;;7.18;1.13;;;14.90;94.50;;;;;;10492762;28;20473;-23
2023/04/07 08:41:48;;;;;;;5.23;1.10;;;15.40;90.60;;;;;;10503453;28;20060;-23
2023/04/07 08:46:56;;;;;;;12.18;1.50;;;15.20;89.90;;;;;;10486469;28;20080;-23
2023/04/07 08:52:01;;;;;;;9.98;1.50;;;13.00;99.90;;;;;;10497846;28;20110;-29
2023/04/07 08:57:03;;;;;;;9.18;1.75;;;12.40;99.90;;;;;;10491188;28;20131;-23
2023/04/07 09:02:06;;;;;;;5.20;1.10;;;13.20;99.90;;;;;;10493669;28;20048;-22
2023/04/07 09:07:08;;;;;;;10.13;1.60;;;13.20;96.20;;;;;;10490570;28;20068;-23
2023/04/07 09:12:10;;;;;;;5.63;1.60;;;13.70;99.90;;;;;;10492351;28;20080;-23
2023/04/07 09:17:13;;;;;;;7.43;1.07;;;14.30;93.90;;;;;;10493275;28;20048;-23
2023/04/07 09:22:15;;;;;;;5.25;0.90;;;14.70;95.60;;;;;;10491800;28;20040;-22
2023/04/07 09:27:19;;;;;;;7.53;1.30;;;14.00;96.70;;;;;;10490959;28;20051;-22
2023/04/07 09:32:37;;;;;;;8.63;1.30;;;14.10;97.20;;;;;;10494528;28;20063;-22
2023/04/07 09:37:39;;;;;;;9.00;1.27;;;14.00;96.90;;;;;;10490858;28;20041;-22
2023/04/07 09:42:48;;;;;;;5.17;0.90;;;12.60;98.80;;;;;;10496032;28;20056;-22
2023/04/07 09:47:52;;;;;;;4.57;1.30;;;13.80;99.30;;;;;;10508690;28;20048;-23
2023/04/07 09:52:54;;;;;;;5.80;0.98;;;13.80;99.90;;;;;;10495545;28;20052;-23
2023/04/07 09:57:57;;;;;;;5.07;1.10;;;14.60;96.00;;;;;;10485387;28;20059;-22
2023/04/07 10:03:02;;;;;;;7.80;1.58;;;13.20;99.90;;;;;;10490660;28;20056;-23
2023/04/07 10:08:06;;;;;;;3.83;0.90;;;12.10;99.90;;;;;;10484618;28;20106;-22
2023/04/07 10:13:07;;;;;;;9.45;1.77;;;13.40;99.60;;;;;;10486365;28;20076;-23
2023/04/07 10:18:11;;;;;;;6.20;1.10;;;14.20;97.90;;;;;;10500831;28;20044;-23
2023/04/07 10:23:19;;;;;;;4.35;1.40;;;14.10;96.40;;;;;;10486110;28;20485;-23
2023/04/07 10:28:24;;;;;;;5.13;1.08;;;14.90;95.70;;;;;;10483484;28;20080;-23
2023/04/07 10:33:47;;;;;;;4.93;1.35;;;14.40;95.00;;;;;;10482354;28;20140;-22
2023/04/07 10:39:19;;;;;;;7.10;2.15;;;13.60;99.80;;;;;;10488517;28;20056;-21
2023/04/07 10:44:47;;;;;;;10.17;1.83;;;13.40;99.40;;;;;;10436956;28;20132;-22
2023/04/07 10:50:19;;;;;;;7.53;1.33;;;12.90;98.30;;;;;;10490237;28;20053;-23
2023/04/07 10:55:33;;;;;;;10.17;1.83;;;14.20;97.50;;;;;;10490389;28;20052;-22
2023/04/07 11:00:34;;;;;;;5.88;1.88;;;14.40;95.20;;;;;;10497716;28;20127;-23
2023/04/07 11:05:38;;;;;;;8.20;1.03;;;14.90;94.60;;;;;;10490834;28;20079;-24
2023/04/07 11:10:40;;;;;;;8.07;1.63;;;13.80;91.00;;;;;;10497229;28;20048;-21
2023/04/07 11:15:42;;;;;;;8.63;1.67;;;13.80;91.10;;;;;;10493758;28;20148;-22
2023/04/07 11:20:48;;;;;;;7.00;2.03;;;15.30;81.30;;;;;;10500297;28;20102;-23
2023/04/07 11:25:51;;;;;;;7.80;1.42;;;13.50;96.80;;;;;;10495518;28;20131;-22
2023/04/07 11:30:55;;;;;;;8.95;2.15;;;14.10;95.00;;;;;;10492701;28;20068;-22
2023/04/07 11:36:00;;;;;;;8.90;1.52;;;15.40;92.50;;;;;;10494717;28;20067;-24
2023/04/07 11:41:11;;;;;;;8.15;2.45;;;14.00;93.50;;;;;;10493117;28;20047;-23
2023/04/07 11:46:15;;;;;;;5.90;2.00;;;16.40;90.30;;;;;;10495291;28;20048;-23
2023/04/07 11:51:19;;;;;;;9.85;2.05;;;14.70;93.50;;;;;;10493187;28;20052;-23
2023/04/07 11:56:22;;;;;;;8.48;1.77;;;14.70;81.00;;;;;;10481265;28;20084;-22
2023/04/07 12:01:38;;;;;;;9.25;3.28;;;15.00;90.40;;;;;;10491780;28;20052;-23
2023/04/07 12:06:41;;;;;;;8.48;3.63;;;14.70;98.20;;;;;;10498775;28;20128;-21
2023/04/07 12:11:49;;;;;;;6.50;1.58;;;16.40;92.20;;;;;;10492408;28;20053;-23
2023/04/07 12:16:54;;;;;;;10.23;3.17;;;14.60;87.90;;;;;;10490363;28;20140;-23
2023/04/07 12:21:58;;;;;;;7.25;2.53;;;14.00;97.80;;;;;;10494801;28;20422;-22
2023/04/07 12:27:00;;;;;;;13.70;2.47;;;13.80;94.50;;;;;;10490990;28;20080;-22
2023/04/07 12:32:02;;;;;;;11.30;1.87;;;14.00;97.20;;;;;;10490805;28;20040;-22
2023/04/07 12:37:05;;;;;;;12.30;3.23;;;12.30;99.90;;;;;;10485561;28;20208;-22
2023/04/07 12:42:10;;;;;;;13.88;2.75;;;13.10;98.30;;;;;;10496235;28;20056;-23
2023/04/07 12:47:12;;;;;;;19.42;3.75;;;13.30;96.90;;;;;;10492032;28;20044;-21
2023/04/07 12:52:16;;;;;;;12.35;4.63;;;13.40;99.90;;;;;;10493043;28;20056;-22
2023/04/07 12:57:18;;;;;;;11.98;1.98;;;13.30;99.90;;;;;;10489781;28;20811;-21
2023/04/07 13:02:19;;;;;;;9.80;2.70;;;12.90;98.70;;;;;;10491442;28;20052;-22
2023/04/07 13:07:23;;;;;;;13.23;3.80;;;12.70;99.90;;;;;;10509600;28;20049;-22
2023/04/07 13:12:26;;;;;;;13.75;2.20;;;14.40;94.40;;;;;;10497844;28;20056;-22
2023/04/07 13:17:27;;;;;;;;;;;14.80;97.80;;;;;;10491314;28;20440;-23
2023/04/07 13:22:31;;;;;;;11.57;3.20;;;13.40;98.20;;;;;;10489038;28;20258;-23
2023/04/07 13:27:32;;;;;;;10.18;1.80;;;14.60;96.80;;;;;;10492362;28;20068;-23
2023/04/07 13:32:35;;;;;;;7.40;1.55;;;14.10;98.60;;;;;;10490099;28;20052;-23
2023/04/07 13:37:38;;;;;;;7.32;1.40;;;14.00;96.60;;;;;;10490694;28;20055;-24
2023/04/07 13:42:40;;;;;;;6.95;1.25;;;14.70;96.10;;;;;;10501783;28;20079;-20
2023/04/07 13:47:42;;;;;;;8.67;1.87;;;13.80;95.60;;;;;;10489368;28;20045;-22
2023/04/07 13:52:45;;;;;;;9.40;1.92;;;16.10;92.00;;;;;;10484483;28;20064;-23
2023/04/07 13:57:47;;;;;;;3.88;1.23;;;14.00;99.90;;;;;;10488502;28;20048;-23
2023/04/07 14:02:49;;;;;;;16.80;1.70;;;16.40;93.00;;;;;;10489975;28;20052;-23
2023/04/07 14:07:53;;;;;;;12.80;1.73;;;14.20;93.70;;;;;;10485908;28;20875;-23
2023/04/07 14:12:55;;;;;;;12.23;2.05;;;15.30;86.60;;;;;;10481928;28;20060;-24
2023/04/07 14:17:56;;;;;;;10.60;1.97;;;14.70;97.70;;;;;;10476570;28;20059;-23
2023/04/07 14:23:00;;;;;;;9.63;2.17;;;14.10;99.30;;;;;;10479927;28;20075;-24
2023/04/07 14:28:02;;;;;;;11.57;2.13;;;16.00;95.50;;;;;;10484038;28;20144;-23
2023/04/07 14:33:04;;;;;;;8.07;2.03;;;15.00;90.70;;;;;;10477605;28;20048;-22
2023/04/07 14:38:08;;;;;;;9.73;1.60;;;17.30;89.00;;;;;;10480181;28;20140;-24
2023/04/07 14:43:09;;;;;;;13.20;2.35;;;14.90;90.70;;;;;;10484371;28;20132;-23
2023/04/07 14:48:12;;;;;;;9.67;2.43;;;15.80;96.80;;;;;;10492293;28;20084;-24
2023/04/07 14:53:16;;;;;;;;;;;17.00;88.40;;;;;;10488736;28;20158;-25
2023/04/07 14:58:17;;;;;;;9.65;1.45;;;14.70;99.90;;;;;;10482937;28;20620;-23
2023/04/07 15:03:19;;;;;;;7.93;1.47;;;17.60;90.80;;;;;;10484584;28;20048;-22
2023/04/07 15:08:22;;;;;;;12.85;2.80;;;15.60;93.80;;;;;;10489937;28;20052;-22
2023/04/07 15:13:24;;;;;;;5.30;2.05;;;16.40;93.10;;;;;;10476193;28;20131;-23
2023/04/07 15:18:26;;;;;;;12.25;1.73;;;16.70;94.10;;;;;;10488297;28;20143;-23
2023/04/07 15:23:30;;;;;;;8.95;1.52;;;17.50;88.30;;;;;;10493478;28;20128;-23
2023/04/07 15:28:32;;;;;;;11.95;2.45;;;16.70;87.10;;;;;;10492584;28;20075;-21
2023/04/07 15:33:34;;;;;;;6.63;1.80;;;15.70;91.60;;;;;;10485093;28;20416;-23
2023/04/07 15:38:39;;;;;;;10.70;2.17;;;17.30;79.80;;;;;;10493999;28;20798;-23
2023/04/07 15:43:40;;;;;;;10.32;2.00;;;16.40;95.40;;;;;;10478197;28;20045;-22
2023/04/07 15:48:43;;;;;;;6.50;1.60;;;16.00;93.70;;;;;;10494467;28;20066;-27
2023/04/07 15:53:46;;;;;;;7.57;1.80;;;18.80;82.60;;;;;;10493332;28;20044;-21
2023/04/07 15:58:47;;;;;;;18.95;3.08;;;17.60;71.10;;;;;;10491501;28;20467;-22
2023/04/07 16:03:50;;;;;;;8.83;1.77;;;15.00;90.10;;;;;;10503684;28;20129;-22
2023/04/07 16:08:55;;;;;;;6.25;1.48;;;15.60;99.60;;;;;;10486931;28;20052;-23
2023/04/07 16:13:56;;;;;;;10.90;1.80;;;17.10;92.40;;;;;;10487533;28;20052;-23
2023/04/07 16:18:58;;;;;;;8.13;2.27;;;17.10;89.20;;;;;;10495666;28;20549;-22
2023/04/07 16:24:02;;;;;;;10.43;2.25;;;16.10;89.70;;;;;;10491621;28;20124;-22
2023/04/07 16:29:03;;;;;;;6.85;2.22;;;16.30;92.70;;;;;;10481172;28;20134;-23
2023/04/07 16:34:06;;;;;;;20.98;3.22;;;18.30;83.20;;;;;;10496446;28;20139;-23
2023/04/07 16:39:09;;;;;;;16.08;2.83;;;16.70;78.20;;;;;;10488506;28;20138;-24
2023/04/07 16:44:11;;;;;;;12.98;2.28;;;17.00;92.00;;;;;;10491646;28;20113;-22
2023/04/07 16:49:13;;;;;;;9.60;2.73;;;15.90;96.10;;;;;;10478797;28;20048;-23
2023/04/07 16:54:16;;;;;;;13.00;2.57;;;17.50;91.80;;;;;;10494992;28;20143;-23
2023/04/07 16:59:18;;;;;;;11.65;2.97;;;18.80;81.90;;;;;;10486345;28;20044;-23
2023/04/07 17:04:20;;;;;;;14.00;2.50;;;17.90;87.80;;;;;;10485726;28;20502;-21
2023/04/07 17:09:23;;;;;;;13.60;3.63;;;17.00;92.20;;;;;;10489539;28;20041;-22
2023/04/07 17:14:25;;;;;;;14.70;2.60;;;16.60;95.20;;;;;;10491761;28;20098;-22
2023/04/07 17:19:27;;;;;;;22.30;3.28;;;18.30;87.60;;;;;;10490286;28;20489;-22
2023/04/07 17:24:31;;;;;;;19.02;3.65;;;18.30;86.60;;;;;;10487470;28;20182;-22
2023/04/07 17:29:32;;;;;;;19.70;3.92;;;18.90;80.60;;;;;;10488766;28;20040;-24
2023/04/07 17:34:35;;;;;;;12.05;2.28;;;19.40;75.50;;;;;;10489100;28;20421;-23
2023/04/07 17:39:38;;;;;;;;;;;16.40;91.30;;;;;;10486303;28;20080;-23
2023/04/07 17:44:41;;;;;;;8.88;2.13;;;14.60;97.90;;;;;;10484695;28;20011;-23
2023/04/07 17:49:42;;;;;;;;;;;16.20;96.60;;;;;;10497196;28;20059;-23
2023/04/07 17:54:46;;;;;;;15.48;2.70;;;14.80;99.90;;;;;;10483948;28;19923;-22
2023/04/07 17:59:48;;;;;;;12.45;2.33;;;15.50;97.90;;;;;;10490864;28;20054;-30
2023/04/07 18:04:50;;;;;;;9.35;3.33;;;15.80;95.30;;;;;;10489600;28;20053;-21
2023/04/07 18:09:53;;;;;;;8.88;2.78;;;16.60;97.00;;;;;;10491298;28;20123;-23
2023/04/07 18:14:55;;;;;;;5.60;1.70;;;18.70;84.10;;;;;;10487242;28;20084;-22
2023/04/07 18:19:57;;;;;;;9.85;1.85;;;18.70;81.40;;;;;;10482579;28;20044;-23
2023/04/07 18:25:01;;;;;;;10.02;2.30;;;19.30;77.80;;;;;;10488262;28;20127;-24
2023/04/07 18:30:03;;;;;;;8.73;1.90;;;16.70;88.00;;;;;;10490953;28;20076;-23
2023/04/07 18:35:06;;;;;;;6.05;1.83;;;17.10;93.60;;;;;;10488810;28;20045;-24
2023/04/07 18:40:10;;;;;;;14.30;2.15;;;18.30;86.90;;;;;;10490837;28;20433;-23
2023/04/07 18:45:12;;;;;;;11.02;2.40;;;16.70;84.70;;;;;;10486393;28;20052;-23
2023/04/07 18:50:14;;;;;;;10.45;2.47;;;16.20;90.30;;;;;;10487212;28;20048;-23
2023/04/07 18:55:19;;;;;;;8.30;1.83;;;16.10;96.10;;;;;;10489517;28;20059;-23
2023/04/07 19:00:21;;;;;;;10.27;1.88;;;18.20;79.60;;;;;;10492882;28;20498;-23
2023/04/07 19:05:23;;;;;;;14.90;2.78;;;16.80;92.70;;;;;;10488602;28;20040;-21
2023/04/07 19:10:26;;;;;;;8.53;2.10;;;16.00;91.70;;;;;;10498538;28;20087;-23
2023/04/07 19:15:31;;;;;;;13.48;3.00;;;18.00;89.40;;;;;;10486075;28;20085;-23
2023/04/07 19:20:33;;;;;;;18.08;2.40;;;15.60;96.20;;;;;;10498168;28;20511;-24
2023/04/07 19:25:37;;;;;;;11.40;1.70;;;18.10;77.40;;;;;;10503215;28;20045;-22
2023/04/07 19:30:39;;;;;;;5.10;1.40;;;17.50;91.50;;;;;;10507296;28;20085;-23
2023/04/07 19:35:41;;;;;;;17.50;3.35;;;18.60;84.60;;;;;;10502429;28;20051;-24
2023/04/07 19:40:44;;;;;;;4.78;1.48;;;16.10;92.90;;;;;;10503373;28;20136;-23
2023/04/07 19:45:48;;;;;;;7.68;1.42;;;18.90;82.40;;;;;;10503737;28;20053;-22
2023/04/07 19:50:50;;;;;;;4.35;1.50;;;18.60;83.10;;;;;;10495636;28;20079;-23
2023/04/07 19:55:53;;;;;;;4.15;1.75;;;18.60;84.70;;;;;;10498436;28;20062;-23
2023/04/07 20:00:55;;;;;;;14.32;2.00;;;19.20;79.30;;;;;;10483631;28;20136;-23
2023/04/07 20:05:57;;;;;;;6.22;1.70;;;18.10;86.10;;;;;;10498237;28;20079;-23
2023/04/07 20:11:00;;;;;;;7.47;1.58;;;19.20;74.00;;;;;;10496200;28;20152;-22
2023/04/07 20:16:02;;;;;;;3.88;1.17;;;18.50;85.00;;;;;;10491949;28;20059;-22
2023/04/07 20:21:05;;;;;;;5.60;1.40;;;19.40;77.10;;;;;;10490052;28;20477;-22
2023/04/07 20:26:09;;;;;;;3.97;1.63;;;18.50;81.40;;;;;;10496443;28;20397;-23
2023/04/07 20:31:11;;;;;;;7.50;1.80;;;19.00;79.40;;;;;;10489397;28;20129;-22
2023/04/07 20:36:12;;;;;;;6.65;1.70;;;17.30;89.50;;;;;;10496320;28;20114;-21
2023/04/07 20:41:16;;;;;;;5.30;1.63;;;18.10;88.40;;;;;;10481838;28;20147;-22
2023/04/07 20:46:18;;;;;;;9.23;2.03;;;18.60;83.80;;;;;;10487294;28;20469;-24
2023/04/07 20:51:20;;;;;;;8.43;1.85;;;16.30;93.60;;;;;;10482589;28;20098;-23
2023/04/07 20:56:24;;;;;;;5.55;1.50;;;18.00;88.60;;;;;;10488301;28;20063;-23
2023/04/07 21:01:26;;;;;;;4.93;1.75;;;17.70;90.50;;;;;;10496857;28;20145;-24
2023/04/07 21:06:28;;;;;;;6.35;1.30;;;19.00;73.90;;;;;;10493152;28;20444;-25
2023/04/07 21:11:31;;;;;;;2.88;1.15;;;19.00;79.00;;;;;;10487971;28;20416;-23
2023/04/07 21:16:33;;;;;;;7.57;1.48;;;19.30;76.10;;;;;;10499682;28;20131;-22
2023/04/07 21:21:34;;;;;;;14.48;3.25;;;18.20;83.10;;;;;;10493387;28;20064;-22
2023/04/07 21:26:38;;;;;;;3.92;1.52;;;17.30;85.10;;;;;;10493672;28;20076;-23
2023/04/07 21:31:40;;;;;;;4.32;1.48;;;18.40;82.80;;;;;;10491420;28;20048;-23
2023/04/07 21:36:42;;;;;;;4.90;1.80;;;19.20;76.30;;;;;;10494869;28;20060;-23
2023/04/07 21:41:45;;;;;;;4.63;1.15;;;18.80;77.40;;;;;;10492896;28;20449;-23
2023/04/07 21:46:47;;;;;;;3.80;1.10;;;19.10;74.70;;;;;;10470820;28;20127;-23
2023/04/07 21:51:49;;;;;;;5.95;1.35;;;18.40;80.50;;;;;;10488203;28;20453;-23
2023/04/07 21:56:52;;;;;;;4.50;1.38;;;19.30;74.30;;;;;;10490103;28;20488;-23
2023/04/07 22:01:56;;;;;;;3.20;1.65;;;19.30;73.30;;;;;;10489999;28;20048;-24
2023/04/07 22:06:58;;;;;;;3.15;1.20;;;19.40;73.30;;;;;;10495813;28;20057;-23
2023/04/07 22:12:01;;;;;;;3.28;1.17;;;19.00;76.60;;;;;;10495310;28;20052;-23
2023/04/07 22:17:03;;;;;;;7.50;1.30;;;18.80;76.80;;;;;;10497162;28;20082;-22
2023/04/07 22:22:06;;;;;;;5.35;1.23;;;18.90;75.50;;;;;;10490948;28;20499;-23
2023/04/07 22:27:10;;;;;;;2.60;1.10;;;18.80;76.50;;;;;;10487154;28;20052;-22
2023/04/07 22:32:12;;;;;;;6.38;1.83;;;19.00;75.00;;;;;;10487402;28;20126;-22
2023/04/07 22:37:13;;;;;;;2.88;1.10;;;18.60;77.00;;;;;;10485972;28;20048;-23
2023/04/07 22:42:17;;;;;;;4.07;1.25;;;18.50;78.10;;;;;;10492187;28;20175;-25
2023/04/07 22:47:21;;;;;;;3.95;1.40;;;19.30;72.50;;;;;;10489105;28;20036;-24
2023/04/07 22:52:23;;;;;;;2.80;1.30;;;19.40;71.60;;;;;;10489342;28;20044;-23
2023/04/07 22:57:26;;;;;;;3.03;1.10;;;19.50;71.00;;;;;;10501137;28;20049;-22
2023/04/07 23:02:28;;;;;;;6.53;1.40;;;19.40;71.20;;;;;;10502903;28;20079;-23
2023/04/07 23:07:30;;;;;;;2.97;1.70;;;19.50;70.60;;;;;;10495069;28;20040;-23
2023/04/07 23:12:33;;;;;;;5.70;1.95;;;19.20;71.80;;;;;;10495641;28;20528;-23
2023/04/07 23:17:35;;;;;;;5.80;1.90;;;19.00;73.90;;;;;;10494876;28;20057;-22
2023/04/07 23:22:37;;;;;;;3.90;1.90;;;18.50;77.40;;;;;;10494676;28;20047;-23
2023/04/07 23:27:40;;;;;;;3.53;1.98;;;18.80;74.40;;;;;;10495290;28;20040;-23
2023/04/07 23:32:42;;;;;;;7.55;2.30;;;19.00;73.20;;;;;;10501004;28;20133;-23
2023/04/07 23:37:44;;;;;;;5.43;2.10;;;19.00;73.80;;;;;;10492538;28;20129;-23
2023/04/07 23:42:47;;;;;;;5.30;2.17;;;19.30;71.10;;;;;;10499304;28;20049;-23
2023/04/07 23:47:49;;;;;;;4.60;2.60;;;19.30;71.10;;;;;;10501514;28;20063;-22
2023/04/07 23:52:51;;;;;;;5.90;2.67;;;19.30;70.40;;;;;;10492691;28;20052;-22
2023/04/07 23:57:54;;;;;;;8.55;3.80;;;19.40;70.00;;;;;;10493012;28;20054;-23
